createdAt,value
2019-05-25T00:00:14.685Z,1006.81
2019-05-25T00:01:14.706Z,1006.82
2019-05-25T00:02:14.625Z,1006.81
2019-05-25T00:03:14.559Z,1006.81
2019-05-25T00:04:14.542Z,1006.78
2019-05-25T00:05:14.535Z,1006.82
2019-05-25T00:06:14.582Z,1006.85
2019-05-25T00:07:14.546Z,1006.84
2019-05-25T00:08:14.492Z,1006.84
2019-05-25T00:09:14.485Z,1006.89
2019-05-25T00:10:14.472Z,1006.86
2019-05-25T00:11:14.464Z,1006.82
2019-05-25T00:12:14.488Z,1006.84
2019-05-25T00:13:14.805Z,1006.82
2019-05-25T00:14:14.434Z,1006.83
2019-05-25T00:15:14.421Z,1006.84
2019-05-25T00:16:14.406Z,1006.86
2019-05-25T00:17:14.427Z,1006.84
2019-05-25T00:18:14.401Z,1006.89
2019-05-25T00:19:14.415Z,1006.88
2019-05-25T00:20:14.363Z,1006.91
2019-05-25T00:21:14.408Z,1006.86
2019-05-25T00:22:14.438Z,1006.86
2019-05-25T00:23:14.372Z,1006.86
2019-05-25T00:24:14.338Z,1006.93
2019-05-25T00:25:14.316Z,1006.94
2019-05-25T00:26:14.353Z,1006.94
2019-05-25T00:27:14.399Z,1006.98
2019-05-25T00:28:14.276Z,1006.93
2019-05-25T00:29:14.273Z,1006.94
2019-05-25T00:30:14.255Z,1006.90
2019-05-25T00:31:14.334Z,1006.93
2019-05-25T00:32:14.272Z,1006.97
2019-05-25T00:33:14.228Z,1006.92
2019-05-25T00:34:15.288Z,1006.97
2019-05-25T00:35:14.204Z,1006.99
2019-05-25T00:36:14.220Z,1007.01
2019-05-25T00:37:14.206Z,1006.97
2019-05-25T00:38:14.240Z,1007.03
2019-05-25T00:39:14.251Z,1007.02
2019-05-25T00:40:14.186Z,1007.01
2019-05-25T00:41:14.188Z,1007.02
2019-05-25T00:42:14.199Z,1007.03
2019-05-25T00:43:14.145Z,1007.02
2019-05-25T00:44:14.109Z,1007.06
2019-05-25T00:45:14.097Z,1007.04
2019-05-25T00:46:14.083Z,1007.06
2019-05-25T00:47:14.117Z,1007.04
2019-05-25T00:48:14.061Z,1007.08
2019-05-25T00:49:14.081Z,1007.12
2019-05-25T00:50:14.041Z,1007.09
2019-05-25T00:51:14.034Z,1007.11
2019-05-25T00:52:14.396Z,1007.12
2019-05-25T00:53:14.009Z,1007.06
2019-05-25T00:54:27.113Z,1007.12
2019-05-25T00:55:15.090Z,1007.08
2019-05-25T00:56:13.978Z,1007.06
2019-05-25T00:57:14.003Z,1007.08
2019-05-25T00:58:13.957Z,1007.11
2019-05-25T00:59:13.942Z,1007.14
2019-05-25T01:00:13.937Z,1007.12
2019-05-25T01:01:13.946Z,1007.11
2019-05-25T01:02:13.939Z,1007.12
2019-05-25T01:03:13.919Z,1007.15
2019-05-25T01:04:13.888Z,1007.15
2019-05-25T01:05:13.881Z,1007.14
2019-05-25T01:06:13.863Z,1007.19
2019-05-25T01:07:13.915Z,1007.19
2019-05-25T01:08:13.850Z,1007.15
2019-05-25T01:09:13.831Z,1007.18
2019-05-25T01:10:13.875Z,1007.20
2019-05-25T01:11:13.821Z,1007.14
2019-05-25T01:12:13.795Z,1007.12
2019-05-25T01:13:13.882Z,1007.15
2019-05-25T01:14:13.777Z,1007.18
2019-05-25T01:15:13.772Z,1007.23
2019-05-25T01:16:13.791Z,1007.20
2019-05-25T01:17:13.748Z,1007.20
2019-05-25T01:18:13.761Z,1007.22
2019-05-25T01:19:13.728Z,1007.18
2019-05-25T01:20:13.788Z,1007.20
2019-05-25T01:21:13.706Z,1007.18
2019-05-25T01:22:13.706Z,1007.18
2019-05-25T01:23:13.735Z,1007.19
2019-05-25T01:24:13.749Z,1007.16
2019-05-25T01:25:13.730Z,1007.18
2019-05-25T01:26:13.730Z,1007.20
2019-05-25T01:27:13.660Z,1007.19
2019-05-25T01:28:13.712Z,1007.17
2019-05-25T01:29:13.635Z,1007.18
2019-05-25T01:30:13.633Z,1007.17
2019-05-25T01:31:13.607Z,1007.20
2019-05-25T01:32:13.623Z,1007.21
2019-05-25T01:33:13.600Z,1007.21
2019-05-25T01:34:13.597Z,1007.23
2019-05-25T01:35:13.555Z,1007.23
2019-05-25T01:36:13.547Z,1007.22
2019-05-25T01:37:13.539Z,1007.23
2019-05-25T01:38:13.593Z,1007.21
2019-05-25T01:39:13.540Z,1007.20
2019-05-25T01:40:13.504Z,1007.22
2019-05-25T01:41:13.494Z,1007.17
2019-05-25T01:42:13.487Z,1007.24
2019-05-25T01:43:13.497Z,1007.21
2019-05-25T01:44:13.457Z,1007.25
2019-05-25T01:45:13.448Z,1007.24
2019-05-25T01:46:13.435Z,1007.22
2019-05-25T01:47:13.441Z,1007.21
2019-05-25T01:48:13.457Z,1007.25
2019-05-25T01:49:13.409Z,1007.28
2019-05-25T01:50:13.398Z,1007.28
2019-05-25T01:51:13.386Z,1007.29
2019-05-25T01:52:13.374Z,1007.27
2019-05-25T01:53:13.398Z,1007.29
2019-05-25T01:54:13.361Z,1007.29
2019-05-25T01:55:13.357Z,1007.31
2019-05-25T01:56:13.327Z,1007.30
2019-05-25T01:57:13.341Z,1007.24
2019-05-25T01:58:13.347Z,1007.29
2019-05-25T01:59:13.297Z,1007.26
2019-05-25T02:00:13.297Z,1007.30
2019-05-25T02:01:13.299Z,1007.34
2019-05-25T02:02:13.280Z,1007.28
2019-05-25T02:03:13.283Z,1007.33
2019-05-25T02:04:13.250Z,1007.30
2019-05-25T02:05:13.234Z,1007.34
2019-05-25T02:06:13.223Z,1007.41
2019-05-25T02:07:13.215Z,1007.41
2019-05-25T02:08:13.245Z,1007.41
2019-05-25T02:09:13.199Z,1007.42
2019-05-25T02:10:13.219Z,1007.45
2019-05-25T02:11:13.182Z,1007.40
2019-05-25T02:12:13.164Z,1007.43
2019-05-25T02:13:13.189Z,1007.46
2019-05-25T02:14:13.154Z,1007.45
2019-05-25T02:15:13.136Z,1007.45
2019-05-25T02:16:13.140Z,1007.45
2019-05-25T02:17:13.107Z,1007.42
2019-05-25T02:18:13.130Z,1007.41
2019-05-25T02:19:13.123Z,1007.42
2019-05-25T02:20:13.078Z,1007.40
2019-05-25T02:21:13.075Z,1007.43
2019-05-25T02:22:13.061Z,1007.43
2019-05-25T02:23:13.085Z,1007.46
2019-05-25T02:24:13.030Z,1007.47
2019-05-25T02:25:18.332Z,1007.47
2019-05-25T02:26:14.013Z,1007.47
2019-05-25T02:27:12.999Z,1007.50
2019-05-25T02:28:12.986Z,1007.45
2019-05-25T02:29:13.010Z,1007.49
2019-05-25T02:30:12.970Z,1007.49
2019-05-25T02:31:12.954Z,1007.48
2019-05-25T02:32:12.946Z,1007.48
2019-05-25T02:33:12.952Z,1007.51
2019-05-25T02:34:12.963Z,1007.56
2019-05-25T02:35:12.914Z,1007.55
2019-05-25T02:36:12.905Z,1007.54
2019-05-25T02:37:12.889Z,1007.56
2019-05-25T02:38:12.879Z,1007.57
2019-05-25T02:39:12.902Z,1007.58
2019-05-25T02:40:12.863Z,1007.55
2019-05-25T02:41:12.853Z,1007.53
2019-05-25T02:42:12.835Z,1007.56
2019-05-25T02:43:12.829Z,1007.58
2019-05-25T02:44:12.874Z,1007.55
2019-05-25T02:45:12.812Z,1007.59
2019-05-25T02:46:12.798Z,1007.58
2019-05-25T02:47:12.787Z,1007.55
2019-05-25T02:48:12.773Z,1007.57
2019-05-25T02:49:12.800Z,1007.54
2019-05-25T02:50:12.749Z,1007.55
2019-05-25T02:51:12.740Z,1007.51
2019-05-25T02:52:12.734Z,1007.51
2019-05-25T02:53:12.724Z,1007.55
2019-05-25T02:54:12.741Z,1007.56
2019-05-25T02:55:12.700Z,1007.54
2019-05-25T02:56:12.686Z,1007.51
2019-05-25T02:57:12.675Z,1007.57
2019-05-25T02:58:12.673Z,1007.55
2019-05-25T02:59:12.693Z,1007.56
2019-05-25T03:00:12.645Z,1007.60
2019-05-25T03:01:12.640Z,1007.62
2019-05-25T03:02:12.623Z,1007.59
2019-05-25T03:03:12.625Z,1007.57
2019-05-25T03:04:12.639Z,1007.59
2019-05-25T03:05:12.601Z,1007.59
2019-05-25T03:06:12.641Z,1007.64
2019-05-25T03:07:12.573Z,1007.65
2019-05-25T03:08:12.560Z,1007.64
2019-05-25T03:09:12.581Z,1007.66
2019-05-25T03:10:12.537Z,1007.65
2019-05-25T03:11:12.529Z,1007.69
2019-05-25T03:12:12.521Z,1007.72
2019-05-25T03:13:12.509Z,1007.68
2019-05-25T03:14:12.529Z,1007.66
2019-05-25T03:15:12.483Z,1007.69
2019-05-25T03:16:12.477Z,1007.71
2019-05-25T03:17:12.468Z,1007.69
2019-05-25T03:18:12.456Z,1007.70
2019-05-25T03:19:12.486Z,1007.66
2019-05-25T03:20:12.435Z,1007.67
2019-05-25T03:21:12.421Z,1007.70
2019-05-25T03:22:12.408Z,1007.70
2019-05-25T03:23:12.403Z,1007.73
2019-05-25T03:24:12.416Z,1007.75
2019-05-25T03:25:12.386Z,1007.74
2019-05-25T03:26:12.369Z,1007.76
2019-05-25T03:27:12.361Z,1007.69
2019-05-25T03:28:12.343Z,1007.71
2019-05-25T03:29:12.368Z,1007.74
2019-05-25T03:30:12.328Z,1007.77
2019-05-25T03:31:12.315Z,1007.73
2019-05-25T03:32:12.304Z,1007.76
2019-05-25T03:33:12.292Z,1007.73
2019-05-25T03:34:12.347Z,1007.77
2019-05-25T03:35:12.273Z,1007.76
2019-05-25T03:36:12.270Z,1007.78
2019-05-25T03:37:12.258Z,1007.84
2019-05-25T03:38:12.260Z,1007.81
2019-05-25T03:39:12.260Z,1007.85
2019-05-25T03:40:12.219Z,1007.86
2019-05-25T03:41:12.206Z,1007.89
2019-05-25T03:42:12.197Z,1007.90
2019-05-25T03:43:12.190Z,1007.88
2019-05-25T03:44:12.172Z,1007.86
2019-05-25T03:45:12.194Z,1007.89
2019-05-25T03:46:12.154Z,1007.93
2019-05-25T03:47:12.142Z,1007.89
2019-05-25T03:48:12.131Z,1007.91
2019-05-25T03:49:12.121Z,1007.91
2019-05-25T03:50:12.143Z,1007.93
2019-05-25T03:51:12.115Z,1007.92
2019-05-25T03:52:12.088Z,1007.93
2019-05-25T03:53:12.115Z,1007.90
2019-05-25T03:54:12.069Z,1007.92
2019-05-25T03:55:12.055Z,1007.89
2019-05-25T03:56:12.046Z,1007.88
2019-05-25T03:57:12.030Z,1007.87
2019-05-25T03:58:12.020Z,1007.88
2019-05-25T03:59:12.041Z,1007.90
2019-05-25T04:00:12.014Z,1007.93
2019-05-25T04:01:12.043Z,1007.86
2019-05-25T04:02:11.979Z,1007.88
2019-05-25T04:03:11.970Z,1007.94
2019-05-25T04:04:11.960Z,1007.91
2019-05-25T04:05:11.953Z,1007.93
2019-05-25T04:06:11.939Z,1007.88
2019-05-25T04:07:11.952Z,1007.89
2019-05-25T04:08:11.916Z,1007.87
2019-05-25T04:09:11.902Z,1007.89
2019-05-25T04:10:11.888Z,1007.87
2019-05-25T04:11:11.879Z,1007.86
2019-05-25T04:12:11.913Z,1007.88
2019-05-25T04:13:11.864Z,1007.86
2019-05-25T04:14:11.853Z,1007.93
2019-05-25T04:15:11.844Z,1007.92
2019-05-25T04:16:11.827Z,1007.94
2019-05-25T04:17:11.852Z,1007.91
2019-05-25T04:18:11.812Z,1007.92
2019-05-25T04:19:11.801Z,1007.92
2019-05-25T04:20:11.819Z,1007.95
2019-05-25T04:21:11.774Z,1007.88
2019-05-25T04:22:11.761Z,1007.87
2019-05-25T04:23:11.751Z,1007.85
2019-05-25T04:24:11.751Z,1007.92
2019-05-25T04:25:11.767Z,1007.87
2019-05-25T04:26:22.232Z,1007.88
2019-05-25T04:27:12.717Z,1007.91
2019-05-25T04:28:11.702Z,1007.92
2019-05-25T04:29:11.717Z,1007.96
2019-05-25T04:30:11.675Z,1007.99
2019-05-25T04:31:11.665Z,1008.01
2019-05-25T04:32:11.661Z,1007.98
2019-05-25T04:33:11.661Z,1008.03
2019-05-25T04:34:11.669Z,1008.03
2019-05-25T04:35:11.619Z,1008.02
2019-05-25T04:36:11.620Z,1008.02
2019-05-25T04:37:11.610Z,1008.07
2019-05-25T04:38:11.595Z,1008.05
2019-05-25T04:39:11.582Z,1008.10
2019-05-25T04:40:11.607Z,1008.14
2019-05-25T04:41:11.559Z,1008.07
2019-05-25T04:42:11.548Z,1008.10
2019-05-25T04:43:11.563Z,1008.15
2019-05-25T04:44:11.535Z,1008.11
2019-05-25T04:45:11.571Z,1008.16
2019-05-25T04:46:11.512Z,1008.18
2019-05-25T04:47:26.125Z,1008.17
2019-05-25T04:48:12.481Z,1008.12
2019-05-25T04:49:11.471Z,1008.21
2019-05-25T04:50:11.496Z,1008.21
2019-05-25T04:51:11.512Z,1008.19
2019-05-25T04:52:11.441Z,1008.25
2019-05-25T04:53:11.436Z,1008.19
2019-05-25T04:54:11.419Z,1008.15
2019-05-25T04:55:11.437Z,1008.23
2019-05-25T04:56:11.404Z,1008.23
2019-05-25T04:57:11.399Z,1008.23
2019-05-25T04:58:11.383Z,1008.28
2019-05-25T04:59:11.380Z,1008.31
2019-05-25T05:00:11.354Z,1008.37
2019-05-25T05:01:11.397Z,1008.36
2019-05-25T05:02:11.336Z,1008.31
2019-05-25T05:03:11.339Z,1008.37
2019-05-25T05:04:11.318Z,1008.34
2019-05-25T05:05:11.346Z,1008.36
2019-05-25T05:06:11.291Z,1008.36
2019-05-25T05:07:11.292Z,1008.37
2019-05-25T05:08:11.277Z,1008.34
2019-05-25T05:09:11.284Z,1008.33
2019-05-25T05:10:11.308Z,1008.36
2019-05-25T05:11:11.411Z,1008.33
2019-05-25T05:12:11.227Z,1008.35
2019-05-25T05:13:11.766Z,1008.37
2019-05-25T05:14:11.207Z,1008.39
2019-05-25T05:15:11.264Z,1008.45
2019-05-25T05:16:11.197Z,1008.35
2019-05-25T05:17:11.178Z,1008.35
2019-05-25T05:18:11.280Z,1008.39
2019-05-25T05:19:11.357Z,1008.41
2019-05-25T05:20:11.182Z,1008.39
2019-05-25T05:21:11.245Z,1008.40
2019-05-25T05:22:11.128Z,1008.38
2019-05-25T05:23:11.118Z,1008.40
2019-05-25T05:24:11.099Z,1008.38
2019-05-25T05:25:11.983Z,1008.43
2019-05-25T05:26:11.117Z,1008.44
2019-05-25T05:27:11.067Z,1008.42
2019-05-25T05:28:11.064Z,1008.49
2019-05-25T05:29:11.050Z,1008.45
2019-05-25T05:30:11.148Z,1008.50
2019-05-25T05:31:23.111Z,1008.45
2019-05-25T05:32:26.373Z,1008.44
2019-05-25T05:33:12.012Z,1008.48
2019-05-25T05:34:11.027Z,1008.47
2019-05-25T05:35:10.987Z,1008.46
2019-05-25T05:36:11.010Z,1008.45
2019-05-25T05:37:11.002Z,1008.41
2019-05-25T05:38:10.958Z,1008.44
2019-05-25T05:39:10.939Z,1008.47
2019-05-25T05:40:10.941Z,1008.44
2019-05-25T05:41:10.936Z,1008.49
2019-05-25T05:42:10.967Z,1008.39
2019-05-25T05:43:10.952Z,1008.45
2019-05-25T05:44:10.940Z,1008.40
2019-05-25T05:45:10.923Z,1008.42
2019-05-25T05:46:10.895Z,1008.47
2019-05-25T05:47:10.874Z,1008.51
2019-05-25T05:48:10.915Z,1008.48
2019-05-25T05:49:10.890Z,1008.47
2019-05-25T05:50:10.860Z,1008.47
2019-05-25T05:51:10.821Z,1008.51
2019-05-25T05:52:10.799Z,1008.50
2019-05-25T05:53:10.789Z,1008.48
2019-05-25T05:54:10.817Z,1008.47
2019-05-25T05:55:10.813Z,1008.47
2019-05-25T05:56:10.757Z,1008.51
2019-05-25T05:57:12.706Z,1008.52
2019-05-25T05:58:10.736Z,1008.53
2019-05-25T05:59:10.761Z,1008.59
2019-05-25T06:00:10.726Z,1008.57
2019-05-25T06:01:10.718Z,1008.56
2019-05-25T06:02:10.704Z,1008.57
2019-05-25T06:03:10.690Z,1008.51
2019-05-25T06:04:10.674Z,1008.56
2019-05-25T06:05:10.699Z,1008.60
2019-05-25T06:06:10.653Z,1008.58
2019-05-25T06:07:10.654Z,1008.62
2019-05-25T06:08:10.645Z,1008.63
2019-05-25T06:09:10.693Z,1008.66
2019-05-25T06:10:10.678Z,1008.69
2019-05-25T06:11:10.660Z,1008.60
2019-05-25T06:12:10.634Z,1008.63
2019-05-25T06:13:10.612Z,1008.66
2019-05-25T06:14:10.600Z,1008.66
2019-05-25T06:15:10.748Z,1008.66
2019-05-25T06:16:10.564Z,1008.72
2019-05-25T06:17:10.541Z,1008.70
2019-05-25T06:18:10.524Z,1008.69
2019-05-25T06:19:10.513Z,1008.68
2019-05-25T06:20:10.538Z,1008.74
2019-05-25T06:21:10.536Z,1008.76
2019-05-25T06:22:10.490Z,1008.75
2019-05-25T06:23:12.567Z,1008.84
2019-05-25T06:24:10.463Z,1008.82
2019-05-25T06:25:10.489Z,1008.76
2019-05-25T06:26:10.540Z,1008.83
2019-05-25T06:27:10.458Z,1008.84
2019-05-25T06:28:10.534Z,1008.86
2019-05-25T06:29:10.513Z,1008.92
2019-05-25T06:30:10.592Z,1008.87
2019-05-25T06:31:10.610Z,1008.86
2019-05-25T06:32:10.386Z,1008.91
2019-05-25T06:33:10.482Z,1008.87
2019-05-25T06:34:10.509Z,1008.92
2019-05-25T06:35:10.358Z,1008.96
2019-05-25T06:36:10.366Z,1008.93
2019-05-25T06:37:10.497Z,1008.96
2019-05-25T06:38:10.451Z,1008.96
2019-05-25T06:39:10.315Z,1008.95
2019-05-25T06:40:10.407Z,1009.00
2019-05-25T06:41:10.453Z,1009.00
2019-05-25T06:42:10.270Z,1008.99
2019-05-25T06:43:10.264Z,1009.03
2019-05-25T06:44:10.250Z,1009.06
2019-05-25T06:45:10.327Z,1009.06
2019-05-25T06:46:10.342Z,1009.08
2019-05-25T06:47:10.219Z,1009.10
2019-05-25T06:48:10.295Z,1009.10
2019-05-25T06:49:10.304Z,1009.11
2019-05-25T06:50:10.237Z,1009.10
2019-05-25T06:51:10.287Z,1009.14
2019-05-25T06:52:10.416Z,1009.10
2019-05-25T06:53:10.184Z,1009.08
2019-05-25T06:54:10.191Z,1009.09
2019-05-25T06:55:10.182Z,1009.13
2019-05-25T06:56:10.270Z,1009.11
2019-05-25T06:57:10.140Z,1009.13
2019-05-25T06:58:10.104Z,1009.17
2019-05-25T06:59:10.090Z,1009.23
2019-05-25T07:00:10.253Z,1009.20
2019-05-25T07:01:10.063Z,1009.17
2019-05-25T07:02:10.138Z,1009.21
2019-05-25T07:03:10.060Z,1009.17
2019-05-25T07:04:10.130Z,1009.14
2019-05-25T07:05:10.131Z,1009.17
2019-05-25T07:06:10.171Z,1009.23
2019-05-25T07:07:10.137Z,1009.28
2019-05-25T07:08:10.144Z,1009.25
2019-05-25T07:09:10.011Z,1009.26
2019-05-25T07:10:10.012Z,1009.31
2019-05-25T07:11:09.963Z,1009.36
2019-05-25T07:12:10.084Z,1009.31
2019-05-25T07:13:09.945Z,1009.27
2019-05-25T07:14:09.957Z,1009.30
2019-05-25T07:15:09.922Z,1009.29
2019-05-25T07:16:09.912Z,1009.28
2019-05-25T07:17:09.978Z,1009.33
2019-05-25T07:18:09.953Z,1009.37
2019-05-25T07:19:10.004Z,1009.30
2019-05-25T07:20:10.017Z,1009.26
2019-05-25T07:21:10.004Z,1009.34
2019-05-25T07:22:10.095Z,1009.34
2019-05-25T07:23:09.943Z,1009.33
2019-05-25T07:24:09.984Z,1009.26
2019-05-25T07:25:10.021Z,1009.27
2019-05-25T07:26:09.931Z,1009.33
2019-05-25T07:27:09.947Z,1009.32
2019-05-25T07:28:09.897Z,1009.32
2019-05-25T07:29:09.901Z,1009.35
2019-05-25T07:30:09.975Z,1009.40
2019-05-25T07:31:09.850Z,1009.39
2019-05-25T07:32:09.819Z,1009.37
2019-05-25T07:33:09.737Z,1009.37
2019-05-25T07:34:09.812Z,1009.35
2019-05-25T07:35:09.776Z,1009.32
2019-05-25T07:36:09.778Z,1009.42
2019-05-25T07:37:09.711Z,1009.40
2019-05-25T07:38:09.672Z,1009.39
2019-05-25T07:39:09.893Z,1009.35
2019-05-25T07:40:09.712Z,1009.40
2019-05-25T07:41:09.748Z,1009.39
2019-05-25T07:42:09.814Z,1009.37
2019-05-25T07:43:10.062Z,1009.38
2019-05-25T07:44:09.799Z,1009.42
2019-05-25T07:45:09.757Z,1009.40
2019-05-25T07:46:09.947Z,1009.45
2019-05-25T07:47:09.815Z,1009.39
2019-05-25T07:48:09.696Z,1009.38
2019-05-25T07:49:09.698Z,1009.43
2019-05-25T07:50:09.777Z,1009.44
2019-05-25T07:51:10.007Z,1009.41
2019-05-25T07:52:09.716Z,1009.34
2019-05-25T07:53:09.581Z,1009.41
2019-05-25T07:54:09.622Z,1009.47
2019-05-25T07:55:09.491Z,1009.43
2019-05-25T07:56:10.525Z,1009.41
2019-05-25T07:57:09.605Z,1009.38
2019-05-25T07:58:17.467Z,1009.42
2019-05-25T07:59:10.625Z,1009.41
2019-05-25T08:00:09.530Z,1009.42
2019-05-25T08:01:09.603Z,1009.43
2019-05-25T08:02:09.981Z,1009.40
2019-05-25T08:03:09.486Z,1009.52
2019-05-25T08:04:09.409Z,1009.54
2019-05-25T08:05:09.465Z,1009.55
2019-05-25T08:06:09.522Z,1009.55
2019-05-25T08:07:09.776Z,1009.58
2019-05-25T08:08:09.580Z,1009.53
2019-05-25T08:09:09.496Z,1009.57
2019-05-25T08:10:09.376Z,1009.56
2019-05-25T08:11:09.590Z,1009.58
2019-05-25T08:12:09.655Z,1009.55
2019-05-25T08:13:09.375Z,1009.57
2019-05-25T08:14:09.283Z,1009.52
2019-05-25T08:15:09.487Z,1009.54
2019-05-25T08:16:09.317Z,1009.54
2019-05-25T08:17:09.390Z,1009.57
2019-05-25T08:18:09.571Z,1009.61
2019-05-25T08:19:09.473Z,1009.59
2019-05-25T08:20:09.322Z,1009.54
2019-05-25T08:21:09.588Z,1009.57
2019-05-25T08:22:09.306Z,1009.60
2019-05-25T08:23:09.628Z,1009.64
2019-05-25T08:24:09.275Z,1009.66
2019-05-25T08:25:09.340Z,1009.62
2019-05-25T08:26:09.314Z,1009.60
2019-05-25T08:27:09.150Z,1009.61
2019-05-25T08:28:09.359Z,1009.68
2019-05-25T08:29:09.565Z,1009.62
2019-05-25T08:30:09.158Z,1009.63
2019-05-25T08:31:09.464Z,1009.62
2019-05-25T08:32:09.280Z,1009.64
2019-05-25T08:33:09.256Z,1009.61
2019-05-25T08:34:09.434Z,1009.56
2019-05-25T08:35:09.298Z,1009.60
2019-05-25T08:36:09.181Z,1009.58
2019-05-25T08:37:09.136Z,1009.62
2019-05-25T08:38:09.857Z,1009.62
2019-05-25T08:39:09.293Z,1009.65
2019-05-25T08:40:09.072Z,1009.62
2019-05-25T08:41:09.002Z,1009.62
2019-05-25T08:42:09.194Z,1009.70
2019-05-25T08:43:09.096Z,1009.70
2019-05-25T08:44:08.999Z,1009.69
2019-05-25T08:45:08.952Z,1009.65
2019-05-25T08:46:08.940Z,1009.64
2019-05-25T08:47:08.955Z,1009.68
2019-05-25T08:48:08.924Z,1009.68
2019-05-25T08:49:08.911Z,1009.67
2019-05-25T08:50:08.934Z,1009.65
2019-05-25T08:51:08.889Z,1009.76
2019-05-25T08:52:08.880Z,1009.67
2019-05-25T08:53:08.877Z,1009.71
2019-05-25T08:54:08.856Z,1009.67
2019-05-25T08:55:08.866Z,1009.69
2019-05-25T08:56:08.855Z,1009.72
2019-05-25T08:57:08.818Z,1009.75
2019-05-25T08:58:08.819Z,1009.70
2019-05-25T08:59:08.803Z,1009.72
2019-05-25T09:00:08.826Z,1009.82
2019-05-25T09:01:08.786Z,1009.85
2019-05-25T09:02:08.768Z,1009.76
2019-05-25T09:03:08.761Z,1009.76
2019-05-25T09:04:08.752Z,1009.77
2019-05-25T09:05:09.095Z,1009.77
2019-05-25T09:06:08.866Z,1009.82
2019-05-25T09:07:08.826Z,1009.80
2019-05-25T09:08:08.784Z,1009.78
2019-05-25T09:09:08.768Z,1009.83
2019-05-25T09:10:08.684Z,1009.79
2019-05-25T09:11:08.710Z,1009.85
2019-05-25T09:12:08.705Z,1009.81
2019-05-25T09:13:08.649Z,1009.85
2019-05-25T09:14:08.639Z,1009.83
2019-05-25T09:15:08.643Z,1009.81
2019-05-25T09:16:08.680Z,1009.84
2019-05-25T09:17:08.614Z,1009.81
2019-05-25T09:18:08.623Z,1009.82
2019-05-25T09:19:08.582Z,1009.87
2019-05-25T09:20:08.576Z,1009.85
2019-05-25T09:21:08.611Z,1009.82
2019-05-25T09:22:08.554Z,1009.84
2019-05-25T09:23:08.560Z,1009.85
2019-05-25T09:24:08.558Z,1009.79
2019-05-25T09:25:08.531Z,1009.91
2019-05-25T09:26:08.521Z,1009.91
2019-05-25T09:27:08.547Z,1009.86
2019-05-25T09:28:08.492Z,1009.94
2019-05-25T09:29:08.493Z,1009.91
2019-05-25T09:30:08.465Z,1009.87
2019-05-25T09:31:08.463Z,1009.91
2019-05-25T09:32:08.483Z,1009.89
2019-05-25T09:33:08.440Z,1009.98
2019-05-25T09:34:08.438Z,1009.93
2019-05-25T09:35:08.431Z,1009.88
2019-05-25T09:36:08.400Z,1009.99
2019-05-25T09:37:08.423Z,1009.98
2019-05-25T09:38:08.382Z,1009.99
2019-05-25T09:39:08.379Z,1010.00
2019-05-25T09:40:08.375Z,1010.09
2019-05-25T09:41:08.345Z,1010.00
2019-05-25T09:42:08.363Z,1009.95
2019-05-25T09:43:08.360Z,1009.98
2019-05-25T09:44:08.318Z,1010.04
2019-05-25T09:45:08.315Z,1010.00
2019-05-25T09:46:08.300Z,1009.99
2019-05-25T09:47:08.301Z,1010.03
2019-05-25T09:48:08.296Z,1009.99
2019-05-25T09:49:08.263Z,1010.00
2019-05-25T09:50:08.250Z,1009.97
2019-05-25T09:51:15.544Z,1009.99
2019-05-25T09:52:09.231Z,1009.93
2019-05-25T09:53:08.266Z,1009.92
2019-05-25T09:54:08.211Z,1009.95
2019-05-25T09:55:08.197Z,1009.95
2019-05-25T09:56:08.193Z,1009.97
2019-05-25T09:57:08.177Z,1010.00
2019-05-25T09:58:08.170Z,1010.00
2019-05-25T09:59:19.735Z,1009.96
2019-05-25T10:00:09.153Z,1010.02
2019-05-25T10:01:08.132Z,1009.99
2019-05-25T10:02:08.172Z,1010.00
2019-05-25T10:03:08.143Z,1010.06
2019-05-25T10:04:08.324Z,1010.01
2019-05-25T10:05:08.096Z,1009.94
2019-05-25T10:06:11.761Z,1009.95
2019-05-25T10:07:09.077Z,1009.92
2019-05-25T10:08:08.077Z,1009.93
2019-05-25T10:09:08.836Z,1009.95
2019-05-25T10:10:08.115Z,1009.91
2019-05-25T10:11:08.035Z,1009.91
2019-05-25T10:12:08.054Z,1009.90
2019-05-25T10:13:08.003Z,1009.84
2019-05-25T10:14:08.003Z,1009.88
2019-05-25T10:15:08.016Z,1009.85
2019-05-25T10:16:07.996Z,1009.88
2019-05-25T10:17:07.972Z,1009.89
2019-05-25T10:18:07.966Z,1009.92
2019-05-25T10:19:07.984Z,1009.91
2019-05-25T10:20:07.965Z,1009.92
2019-05-25T10:21:07.921Z,1009.88
2019-05-25T10:22:07.910Z,1009.86
2019-05-25T10:23:07.896Z,1009.90
2019-05-25T10:24:07.929Z,1009.94
2019-05-25T10:25:07.919Z,1009.94
2019-05-25T10:26:07.866Z,1009.89
2019-05-25T10:27:07.863Z,1009.97
2019-05-25T10:28:07.850Z,1009.92
2019-05-25T10:29:07.836Z,1009.98
2019-05-25T10:30:07.827Z,1009.91
2019-05-25T10:31:07.852Z,1009.96
2019-05-25T10:32:07.804Z,1009.98
2019-05-25T10:33:07.794Z,1009.92
2019-05-25T10:34:07.778Z,1009.93
2019-05-25T10:35:07.772Z,1009.93
2019-05-25T10:36:07.788Z,1009.89
2019-05-25T10:37:07.756Z,1009.86
2019-05-25T10:38:07.765Z,1009.87
2019-05-25T10:39:07.728Z,1009.90
2019-05-25T10:40:07.717Z,1010.02
2019-05-25T10:41:07.742Z,1010.01
2019-05-25T10:42:07.698Z,1009.93
2019-05-25T10:43:07.689Z,1009.95
2019-05-25T10:44:07.673Z,1009.93
2019-05-25T10:45:07.665Z,1009.96
2019-05-25T10:46:07.648Z,1009.98
2019-05-25T10:47:07.674Z,1009.98
2019-05-25T10:48:07.686Z,1009.96
2019-05-25T10:49:07.715Z,1009.97
2019-05-25T10:50:07.610Z,1009.98
2019-05-25T10:51:07.658Z,1009.98
2019-05-25T10:52:07.586Z,1010.01
2019-05-25T10:53:07.607Z,1010.02
2019-05-25T10:54:07.561Z,1009.98
2019-05-25T10:55:07.552Z,1010.01
2019-05-25T10:56:07.548Z,1009.94
2019-05-25T10:57:07.537Z,1009.92
2019-05-25T10:58:07.558Z,1009.86
2019-05-25T10:59:07.509Z,1009.95
2019-05-25T11:00:07.507Z,1009.98
2019-05-25T11:01:07.494Z,1010.03
2019-05-25T11:02:07.502Z,1009.95
2019-05-25T11:03:07.528Z,1009.93
2019-05-25T11:04:07.460Z,1009.86
2019-05-25T11:05:07.454Z,1009.87
2019-05-25T11:06:07.499Z,1009.92
2019-05-25T11:07:07.440Z,1009.85
2019-05-25T11:08:07.464Z,1009.95
2019-05-25T11:09:07.409Z,1009.94
2019-05-25T11:10:07.427Z,1009.97
2019-05-25T11:11:07.395Z,1009.97
2019-05-25T11:12:07.374Z,1009.91
2019-05-25T11:13:07.485Z,1009.87
2019-05-25T11:14:07.358Z,1009.88
2019-05-25T11:15:07.401Z,1009.96
2019-05-25T11:16:07.398Z,1009.92
2019-05-25T11:17:07.324Z,1009.93
2019-05-25T11:18:07.348Z,1009.96
2019-05-25T11:19:07.328Z,1009.91
2019-05-25T11:20:07.294Z,1009.88
2019-05-25T11:21:07.284Z,1009.90
2019-05-25T11:22:07.972Z,1009.92
2019-05-25T11:23:07.261Z,1009.99
2019-05-25T11:24:07.286Z,1009.92
2019-05-25T11:25:07.232Z,1009.87
2019-05-25T11:26:07.222Z,1009.93
2019-05-25T11:27:07.211Z,1009.86
2019-05-25T11:28:08.429Z,1009.88
2019-05-25T11:29:07.220Z,1009.84
2019-05-25T11:30:09.324Z,1009.87
2019-05-25T11:31:07.171Z,1009.87
2019-05-25T11:32:07.711Z,1009.76
2019-05-25T11:33:07.150Z,1009.78
2019-05-25T11:34:07.177Z,1009.78
2019-05-25T11:35:07.135Z,1009.92
2019-05-25T11:36:07.115Z,1009.87
2019-05-25T11:37:07.102Z,1009.82
2019-05-25T11:38:07.091Z,1009.79
2019-05-25T11:39:07.114Z,1009.75
2019-05-25T11:40:07.075Z,1009.78
2019-05-25T11:41:07.066Z,1009.78
2019-05-25T11:42:07.057Z,1009.86
2019-05-25T11:43:07.045Z,1009.85
2019-05-25T11:44:07.027Z,1009.87
2019-05-25T11:45:07.053Z,1009.81
2019-05-25T11:46:07.012Z,1009.89
2019-05-25T11:47:07.204Z,1009.82
2019-05-25T11:48:06.986Z,1009.90
2019-05-25T11:49:21.723Z,1009.85
2019-05-25T11:50:07.991Z,1009.83
2019-05-25T11:51:06.964Z,1009.90
2019-05-25T11:52:06.951Z,1009.87
2019-05-25T11:53:06.975Z,1009.89
2019-05-25T11:54:06.925Z,1009.84
2019-05-25T11:55:06.922Z,1009.84
2019-05-25T11:56:06.913Z,1009.85
2019-05-25T11:57:06.926Z,1009.85
2019-05-25T11:58:06.916Z,1009.83
2019-05-25T11:59:06.868Z,1009.90
2019-05-25T12:00:06.873Z,1009.86
2019-05-25T12:01:06.854Z,1009.89
2019-05-25T12:02:06.872Z,1009.92
2019-05-25T12:03:06.872Z,1009.84
2019-05-25T12:04:06.824Z,1009.90
2019-05-25T12:05:06.813Z,1009.86